Terminal Aerodrome Forecast
Issued by NWS

Home | Current Version | Previous Version | Graphics & Text | Print | Product List | Glossary On
Versions: 1 2 3 4 5 6 7 8 9 10 11 12 13 14 15 16 17 18 19 20 21 22 23 24
000
FTUS43 KBIS 271100
TAFJMS
TAF
KJMS 271134Z 2712/2812 24005KT P6SM OVC060
     FM271400 21006KT P6SM BKN035 OVC050
     FM271700 26008KT P6SM SCT045
     FM272000 27009KT P6SM SCT060 BKN100
     FM280000 28005KT P6SM BKN050 BKN090
     FM280500 36007KT 6SM -SN BR OVC025=

USA.gov is the U.S. government's official web portal to all federal, state and local government web resources and services.